• Join FlightAware (Why Join?)
  • Login
  • US Flag 
07:58PM EDT


 

Airport Tracker/Info


-or-


 

Live Flight TrackerFlight Track Log ✈ N678H ✈ 21-Oct-2013 ✈ M18 - KASG

Flight Track Log - Related Links

Times and Time Zones

All times are in EDT time to prevent confusion due to time zone crossing. See the N678H flight status page for this flight to view local times or setup timezone preferences in your user account.

Time Position Orientation Groundspeed Altitude Reporting Facility
EDT Latitude Longitude Course Direction KTS MPH feet Rate Location/Type
03:06PM 33.7594 -93.6447 350° North 134 154 2,700  Level Memphis Center
03:07PM 33.8042 -93.6542 350° North 158 182 4,000 1,020 Climbing Fort Worth Center
03:09PM 33.8619 -93.6628 353° North 123 142 5,900 960 Climbing Memphis Center
03:10PM 33.8950 -93.6672 354° North 120 138 6,900 1,020 Climbing Memphis Center
03:11PM 33.9369 -93.6717 355° North 123 142 8,100 1,020 Climbing Memphis Center
03:12PM 33.9700 -93.6783 351° North 122 140 9,100 960 Climbing Memphis Center
03:13PM 34.0042 -93.6847 351° North 122 140 10,100 900 Climbing Memphis Center
03:14PM 34.0367 -93.6925 349° North 121 139 11,000 840 Climbing Memphis Center
03:15PM 34.0692 -93.6975 353° North 120 138 11,900 900 Climbing Memphis Center
03:16PM 34.1000 -93.7019 353° North 116 133 12,900 960 Climbing Memphis Center
03:17PM 34.1347 -93.7100 349° North 110 127 14,000 960 Climbing Memphis Center
03:18PM 34.1653 -93.7175 349° North 110 127 14,900 780 Climbing Memphis Center
03:20PM 34.1967 -93.7231 352° North 112 129 15,700 480 Climbing Memphis Center
03:21PM 34.2325 -93.7300 351° North 120 138 16,000 120 Climbing Memphis Center
03:22PM 34.2758 -93.7381 351° North 140 161 16,000  Level Memphis Center
03:23PM 34.3233 -93.7481 350° North 161 185 16,000  Level Memphis Center
03:24PM 34.3817 -93.7583 352° North 171 197 16,000  Level Memphis Center
03:25PM 34.4281 -93.7672 351° North 171 197 16,000  Level Memphis Center
03:26PM 34.4750 -93.7750 352° North 171 197 16,000  Level Memphis Center
03:27PM 34.5206 -93.7856 349° North 168 193 16,000  Level Memphis Center
03:28PM 34.5669 -93.7947 351° North 168 193 16,000  Level Memphis Center
03:29PM 34.6142 -93.8039 351° North 170 196 16,000  Level Memphis Center
03:30PM 34.6700 -93.8167 349° North 170 196 16,000  Level Memphis Center
03:31PM 34.7186 -93.8267 350° North 173 199 16,000  Level Memphis Center
03:32PM 34.7647 -93.8342 352° North 171 197 16,000  Level Memphis Center
03:33PM 34.8117 -93.8419 352° North 170 196 16,000  Level Memphis Center
03:34PM 34.8589 -93.8519 350° North 171 197 16,000 -120 Level Memphis Center
03:35PM 34.9056 -93.8606 351° North 171 197 15,800 -480 Descending Memphis Center
03:36PM 34.9675 -93.8731 351° North 178 205 15,100 -720 Descending Memphis Center
03:37PM 35.0225 -93.8856 349° North 189 217 14,400 -660 Descending Memphis Center
03:38PM 35.0786 -93.8947 352° North 197 227 13,800 -540 Descending Memphis Center
03:39PM 35.1314 -93.9044 351° North 195 224 13,300 -540 Descending Memphis Center
03:40PM 35.1844 -93.9150 351° North 194 223 12,700 -540 Descending Memphis Center
03:41PM 35.2386 -93.9247 352° North 196 226 12,200 -660 Descending Memphis Center
03:42PM 35.3025 -93.9389 350° North 195 224 11,400 -780 Descending Memphis Center
03:43PM 35.3575 -93.9522 349° North 199 229 10,700 -600 Descending Memphis Center
03:44PM 35.4133 -93.9653 349° North 202 232 10,200 -540 Descending Memphis Center
03:45PM 35.4689 -93.9750 352° North 202 232 9,600 -540 Descending Memphis Center
03:46PM 35.5231 -93.9900 347° North 200 230 9,100 -540 Descending Memphis Center
03:47PM 35.5750 -94.0072 345° North 196 226 8,600 -540 Descending Memphis Center
03:48PM 35.6375 -94.0306 343° North 195 224 8,100 -540 Descending Memphis Center
03:49PM 35.6814 -94.0467 343° North 188 216 7,500 -660 Descending Memphis Center
03:51PM 35.7292 -94.0617 346° North 181 208 6,800 -720 Descending Memphis Center
03:52PM 35.7733 -94.0761 345° North 170 196 6,100 -780 Descending Memphis Center
03:53PM 35.8244 -94.0939 344° North 163 188 5,200 -600 Descending Memphis Center
03:54PM 35.8653 -94.1078 345° North 156 180 4,900 -240 Descending Memphis Center
03:55PM 35.9031 -94.1200 345° North 146 168 4,800 -480 Descending Memphis Center
03:56PM 35.9406 -94.1361 341° North 143 165 4,000 -480 Descending Memphis Center
03:57PM 35.9803 -94.1500 344° North 145 167 3,900 -360 Descending Memphis Center
03:58PM 36.0192 -94.1450 North 141 162 3,300 -480 Descending Memphis Center
03:59PM 36.0658 -94.1364 North 141 162 2,900 -240 Descending Memphis Center
04:00PM 36.1061 -94.1292 North 140 161 2,900  Level Memphis Center
04:02PM 36.1667 -94.1167 North  Level FlightAware Approximate
04:09PM 36.1764 -94.1192 North  Level Estimated
04:10PM 36.1764 -94.1192 North  Level Estimated